createdAt,value
2023-04-02T00:00:47.304Z,95.45
2023-04-02T00:01:47.338Z,95.96
2023-04-02T00:02:47.324Z,96.17
2023-04-02T00:03:47.332Z,96.06
2023-04-02T00:04:47.287Z,96.17
2023-04-02T00:05:47.243Z,96.27
2023-04-02T00:06:47.254Z,95.34
2023-04-02T00:07:47.218Z,95.55
2023-04-02T00:08:47.233Z,95.86
2023-04-02T00:09:47.241Z,96.06
2023-04-02T00:10:47.227Z,96.37
2023-04-02T00:11:47.229Z,96.37
2023-04-02T00:12:47.189Z,95.96
2023-04-02T00:13:47.149Z,96.42
2023-04-02T00:14:47.165Z,96.42
2023-04-02T00:15:47.153Z,96.31
2023-04-02T00:16:47.267Z,96.52
2023-04-02T00:17:47.122Z,96.21
2023-04-02T00:18:47.124Z,96.42
2023-04-02T00:19:47.084Z,96.42
2023-04-02T00:20:47.096Z,96.94
2023-04-02T00:21:47.110Z,95.49
2023-04-02T00:22:47.082Z,95.80
2023-04-02T00:23:47.049Z,96.26
2023-04-02T00:24:47.056Z,96.67
2023-04-02T00:25:47.026Z,96.26
2023-04-02T00:26:47.070Z,96.15
2023-04-02T00:27:47.042Z,96.05
2023-04-02T00:28:47.020Z,96.47
2023-04-02T00:29:46.980Z,96.26
2023-04-02T00:30:46.999Z,95.84
2023-04-02T00:31:47.075Z,95.64
2023-04-02T00:32:47.014Z,95.02
2023-04-02T00:33:46.933Z,95.02
2023-04-02T00:34:46.962Z,95.53
2023-04-02T00:35:46.955Z,95.53
2023-04-02T00:36:46.938Z,95.43
2023-04-02T00:37:46.919Z,95.84
2023-04-02T00:38:48.274Z,95.95
2023-04-02T00:39:46.885Z,96.36
2023-04-02T00:40:46.889Z,96.05
2023-04-02T00:41:46.957Z,95.64
2023-04-02T00:42:46.873Z,95.99
2023-04-02T00:43:46.903Z,96.36
2023-04-02T00:44:46.844Z,96.26
2023-04-02T00:45:46.857Z,95.95
2023-04-02T00:46:47.294Z,95.95
2023-04-02T00:47:46.870Z,95.74
2023-04-02T00:48:46.807Z,95.53
2023-04-02T00:49:46.797Z,95.43
2023-04-02T00:50:46.790Z,95.74
2023-04-02T00:51:46.755Z,95.43
2023-04-02T00:52:46.766Z,95.06
2023-04-02T00:53:46.753Z,95.17
2023-04-02T00:54:46.748Z,95.68
2023-04-02T00:55:46.710Z,96.30
2023-04-02T00:56:46.730Z,96.41
2023-04-02T00:57:46.756Z,96.30
2023-04-02T00:58:46.734Z,95.73
2023-04-02T00:59:46.681Z,96.03
2023-04-02T01:00:46.699Z,96.24
2023-04-02T01:01:46.721Z,95.83
2023-04-02T01:02:46.723Z,96.03
2023-04-02T01:03:46.752Z,96.24
2023-04-02T01:04:46.635Z,96.03
2023-04-02T01:05:46.628Z,95.94
2023-04-02T01:06:46.625Z,95.83
2023-04-02T01:07:46.587Z,95.94
2023-04-02T01:08:46.597Z,95.73
2023-04-02T01:09:46.587Z,95.73
2023-04-02T01:10:46.570Z,95.94
2023-04-02T01:11:46.540Z,96.14
2023-04-02T01:12:46.555Z,95.42
2023-04-02T01:13:46.523Z,95.73
2023-04-02T01:14:46.572Z,95.94
2023-04-02T01:15:46.570Z,95.42
2023-04-02T01:16:46.512Z,95.56
2023-04-02T01:17:46.502Z,95.83
2023-04-02T01:18:46.521Z,95.67
2023-04-02T01:19:46.487Z,95.73
2023-04-02T01:20:46.494Z,95.87
2023-04-02T01:21:46.463Z,96.03
2023-04-02T01:22:46.474Z,95.83
2023-04-02T01:23:46.422Z,95.73
2023-04-02T01:24:46.427Z,96.14
2023-04-02T01:25:46.427Z,96.03
2023-04-02T01:26:46.408Z,95.83
2023-04-02T01:27:46.368Z,95.83
2023-04-02T01:28:46.395Z,95.62
2023-04-02T01:29:46.377Z,95.10
2023-04-02T01:30:46.374Z,95.10
2023-04-02T01:31:46.441Z,95.21
2023-04-02T01:32:46.421Z,95.56
2023-04-02T01:33:46.331Z,95.15
2023-04-02T01:34:46.332Z,95.25
2023-04-02T01:35:46.312Z,95.04
2023-04-02T01:36:46.314Z,94.94
2023-04-02T01:37:46.265Z,94.53
2023-04-02T01:38:46.281Z,95.36
2023-04-02T01:39:46.268Z,94.84
2023-04-02T01:40:46.269Z,94.84
2023-04-02T01:41:46.241Z,95.15
2023-04-02T01:42:46.285Z,95.67
2023-04-02T01:43:46.204Z,95.56
2023-04-02T01:44:46.219Z,95.67
2023-04-02T01:45:46.185Z,95.77
2023-04-02T01:46:46.256Z,95.87
2023-04-02T01:47:46.202Z,95.67
2023-04-02T01:48:46.185Z,95.56
2023-04-02T01:49:46.133Z,95.67
2023-04-02T01:50:46.168Z,95.67
2023-04-02T01:51:46.124Z,95.61
2023-04-02T01:52:46.151Z,95.92
2023-04-02T01:53:46.116Z,95.98
2023-04-02T01:54:46.103Z,95.71
2023-04-02T01:55:46.088Z,96.19
2023-04-02T01:56:46.082Z,96.29
2023-04-02T01:57:46.056Z,95.81
2023-04-02T01:58:46.091Z,95.50
2023-04-02T01:59:46.037Z,95.50
2023-04-02T02:00:46.068Z,95.40
2023-04-02T02:01:46.083Z,95.61
2023-04-02T02:02:46.342Z,95.81
2023-04-02T02:03:46.012Z,96.02
2023-04-02T02:04:46.006Z,95.92
2023-04-02T02:05:45.963Z,96.23
2023-04-02T02:06:45.999Z,96.12
2023-04-02T02:07:45.948Z,96.23
2023-04-02T02:08:45.965Z,96.23
2023-04-02T02:09:45.961Z,95.61
2023-04-02T02:10:45.934Z,95.40
2023-04-02T02:11:45.916Z,95.29
2023-04-02T02:12:45.928Z,95.40
2023-04-02T02:13:45.912Z,95.92
2023-04-02T02:14:45.899Z,96.02
2023-04-02T02:15:45.890Z,95.81
2023-04-02T02:16:45.934Z,95.40
2023-04-02T02:17:45.873Z,95.81
2023-04-02T02:18:45.862Z,96.02
2023-04-02T02:19:45.828Z,96.12
2023-04-02T02:20:45.857Z,95.92
2023-04-02T02:21:45.810Z,95.81
2023-04-02T02:22:45.833Z,96.12
2023-04-02T02:23:45.805Z,96.12
2023-04-02T02:24:45.835Z,96.23
2023-04-02T02:25:45.790Z,96.27
2023-04-02T02:26:45.792Z,96.06
2023-04-02T02:27:45.777Z,95.86
2023-04-02T02:28:45.758Z,95.96
2023-04-02T02:29:45.760Z,95.75
2023-04-02T02:30:45.746Z,95.54
2023-04-02T02:31:45.719Z,95.96
2023-04-02T02:32:45.811Z,96.06
2023-04-02T02:33:45.709Z,96.06
2023-04-02T02:34:45.698Z,96.27
2023-04-02T02:35:45.684Z,96.06
2023-04-02T02:36:45.688Z,96.17
2023-04-02T02:37:45.645Z,95.86
2023-04-02T02:38:45.660Z,95.86
2023-04-02T02:39:45.637Z,95.96
2023-04-02T02:40:45.652Z,96.21
2023-04-02T02:41:45.626Z,96.42
2023-04-02T02:42:45.611Z,96.62
2023-04-02T02:43:45.585Z,96.69
2023-04-02T02:44:45.594Z,96.58
2023-04-02T02:45:45.572Z,95.96
2023-04-02T02:46:45.858Z,95.54
2023-04-02T02:47:45.669Z,95.75
2023-04-02T02:48:45.551Z,95.75
2023-04-02T02:49:45.523Z,96.17
2023-04-02T02:50:45.540Z,95.96
2023-04-02T02:51:46.053Z,95.90
2023-04-02T02:52:45.518Z,96.37
2023-04-02T02:53:45.475Z,96.48
2023-04-02T02:54:45.496Z,96.01
2023-04-02T02:55:45.452Z,95.80
2023-04-02T02:56:45.485Z,96.11
2023-04-02T02:57:45.468Z,96.31
2023-04-02T02:58:45.440Z,96.11
2023-04-02T02:59:45.462Z,96.11
2023-04-02T03:00:45.435Z,96.31
2023-04-02T03:01:45.461Z,96.42
2023-04-02T03:02:45.509Z,96.42
2023-04-02T03:03:45.576Z,96.52
2023-04-02T03:04:45.445Z,96.52
2023-04-02T03:05:45.348Z,96.73
2023-04-02T03:06:45.357Z,96.01
2023-04-02T03:07:45.321Z,96.26
2023-04-02T03:08:45.381Z,96.15
2023-04-02T03:09:45.320Z,96.05
2023-04-02T03:10:45.319Z,96.36
2023-04-02T03:11:45.290Z,95.84
2023-04-02T03:12:45.316Z,96.05
2023-04-02T03:13:45.288Z,96.26
2023-04-02T03:14:45.308Z,96.36
2023-04-02T03:15:45.251Z,96.26
2023-04-02T03:16:45.264Z,96.36
2023-04-02T03:17:45.284Z,96.57
2023-04-02T03:18:45.240Z,96.05
2023-04-02T03:19:45.213Z,96.67
2023-04-02T03:20:45.225Z,96.78
2023-04-02T03:21:45.183Z,96.98
2023-04-02T03:22:45.215Z,96.78
2023-04-02T03:23:45.211Z,96.78
2023-04-02T03:24:45.182Z,95.95
2023-04-02T03:25:45.145Z,96.36
2023-04-02T03:26:45.164Z,96.57
2023-04-02T03:27:45.143Z,96.47
2023-04-02T03:28:45.176Z,96.36
2023-04-02T03:29:45.100Z,95.95
2023-04-02T03:30:45.131Z,96.05
2023-04-02T03:31:45.112Z,96.26
2023-04-02T03:32:45.122Z,95.84
2023-04-02T03:33:45.064Z,95.64
2023-04-02T03:34:45.100Z,95.74
2023-04-02T03:35:45.051Z,95.95
2023-04-02T03:36:45.054Z,96.05
2023-04-02T03:37:45.023Z,95.95
2023-04-02T03:38:45.039Z,95.95
2023-04-02T03:39:45.008Z,96.15
2023-04-02T03:40:45.039Z,96.05
2023-04-02T03:41:44.996Z,96.26
2023-04-02T03:42:44.997Z,96.30
2023-04-02T03:43:44.964Z,96.36
2023-04-02T03:44:44.969Z,96.67
2023-04-02T03:45:44.989Z,96.88
2023-04-02T03:46:45.021Z,96.98
2023-04-02T03:47:44.984Z,96.47
2023-04-02T03:48:44.940Z,96.15
2023-04-02T03:49:44.928Z,95.22
2023-04-02T03:50:44.911Z,95.32
2023-04-02T03:51:44.878Z,95.74
2023-04-02T03:52:44.899Z,96.05
2023-04-02T03:53:44.860Z,95.43
2023-04-02T03:54:53.916Z,95.12
2023-04-02T03:55:44.879Z,95.32
2023-04-02T03:56:44.857Z,95.22
2023-04-02T03:57:44.807Z,95.12
2023-04-02T03:58:44.836Z,94.29
2023-04-02T03:59:44.820Z,94.43
2023-04-02T04:00:44.807Z,94.64
2023-04-02T04:01:44.838Z,95.26
2023-04-02T04:02:44.795Z,95.47
2023-04-02T04:03:44.796Z,94.85
2023-04-02T04:04:44.745Z,94.91
2023-04-02T04:05:44.755Z,95.01
2023-04-02T04:06:44.742Z,95.22
2023-04-02T04:07:44.745Z,95.22
2023-04-02T04:08:44.702Z,94.23
2023-04-02T04:09:44.720Z,94.43
2023-04-02T04:10:44.696Z,94.54
2023-04-02T04:11:44.714Z,94.54
2023-04-02T04:12:44.682Z,94.74
2023-04-02T04:13:44.687Z,94.74
2023-04-02T04:14:45.341Z,94.64
2023-04-02T04:15:44.643Z,94.74
2023-04-02T04:16:44.711Z,94.54
2023-04-02T04:17:44.681Z,94.54
2023-04-02T04:18:44.593Z,94.33
2023-04-02T04:19:44.611Z,94.64
2023-04-02T04:20:44.576Z,94.68
2023-04-02T04:21:44.583Z,94.89
2023-04-02T04:22:44.578Z,94.79
2023-04-02T04:23:44.599Z,94.68
2023-04-02T04:24:44.549Z,94.79
2023-04-02T04:25:44.583Z,94.37
2023-04-02T04:26:44.524Z,94.58
2023-04-02T04:27:44.552Z,94.79
2023-04-02T04:28:44.496Z,94.48
2023-04-02T04:29:44.505Z,95.00
2023-04-02T04:30:44.469Z,95.41
2023-04-02T04:31:44.492Z,95.41
2023-04-02T04:32:44.484Z,94.79
2023-04-02T04:33:44.485Z,94.89
2023-04-02T04:34:44.428Z,95.31
2023-04-02T04:35:44.464Z,95.10
2023-04-02T04:36:44.451Z,94.94
2023-04-02T04:37:44.377Z,95.04
2023-04-02T04:38:44.385Z,95.56
2023-04-02T04:39:44.396Z,95.67
2023-04-02T04:40:44.396Z,95.56
2023-04-02T04:41:44.352Z,95.46
2023-04-02T04:42:44.290Z,94.94
2023-04-02T04:43:44.303Z,95.67
2023-04-02T04:44:44.297Z,95.67
2023-04-02T04:45:44.308Z,95.04
2023-04-02T04:46:44.252Z,95.15
2023-04-02T04:47:44.394Z,95.56
2023-04-02T04:48:44.283Z,95.61
2023-04-02T04:49:44.306Z,95.71
2023-04-02T04:50:44.238Z,95.61
2023-04-02T04:51:44.221Z,95.40
2023-04-02T04:52:44.187Z,95.81
2023-04-02T04:53:44.199Z,96.02
2023-04-02T04:54:44.189Z,95.40
2023-04-02T04:55:44.206Z,95.09
2023-04-02T04:56:44.148Z,94.98
2023-04-02T04:57:44.158Z,95.29
2023-04-02T04:58:44.126Z,94.88
2023-04-02T04:59:44.142Z,95.19
2023-04-02T05:00:44.211Z,94.98
2023-04-02T05:01:44.160Z,94.98
2023-04-02T05:02:44.141Z,95.09
2023-04-02T05:03:44.102Z,95.61
2023-04-02T05:04:44.098Z,95.19
2023-04-02T05:05:44.072Z,95.61
2023-04-02T05:06:44.084Z,95.92
2023-04-02T05:07:44.063Z,94.98
2023-04-02T05:08:44.032Z,94.46
2023-04-02T05:09:44.052Z,94.67
2023-04-02T05:10:44.023Z,94.88
2023-04-02T05:11:44.016Z,95.19
2023-04-02T05:12:43.981Z,95.40
2023-04-02T05:13:43.999Z,94.67
2023-04-02T05:14:43.962Z,94.78
2023-04-02T05:15:44.012Z,94.36
2023-04-02T05:16:43.978Z,94.88
2023-04-02T05:17:44.010Z,94.78
2023-04-02T05:18:43.916Z,94.15
2023-04-02T05:19:43.934Z,94.15
2023-04-02T05:20:43.897Z,93.99
2023-04-02T05:21:43.921Z,93.99
2023-04-02T05:22:43.917Z,94.51
2023-04-02T05:23:43.898Z,94.82
2023-04-02T05:24:43.877Z,95.03
2023-04-02T05:25:43.874Z,94.51
2023-04-02T05:26:43.844Z,94.61
2023-04-02T05:27:43.858Z,94.30
2023-04-02T05:28:44.369Z,94.34
2023-04-02T05:29:44.337Z,94.76
2023-04-02T05:30:43.802Z,94.96
2023-04-02T05:31:43.880Z,95.07
2023-04-02T05:32:43.916Z,95.03
2023-04-02T05:33:43.794Z,94.71
2023-04-02T05:34:43.754Z,94.55
2023-04-02T05:35:43.800Z,94.51
2023-04-02T05:36:43.736Z,94.61
2023-04-02T05:37:43.771Z,94.40
2023-04-02T05:38:43.731Z,93.72
2023-04-02T05:39:43.726Z,93.62
2023-04-02T05:40:43.741Z,93.62
2023-04-02T05:41:43.770Z,94.03
2023-04-02T05:42:43.673Z,94.03
2023-04-02T05:43:43.684Z,93.51
2023-04-02T05:44:43.675Z,93.62
2023-04-02T05:45:43.670Z,94.13
2023-04-02T05:46:43.682Z,93.62
2023-04-02T05:47:43.681Z,93.10
2023-04-02T05:48:43.619Z,93.30
2023-04-02T05:49:43.620Z,93.41
2023-04-02T05:50:43.631Z,93.55
2023-04-02T05:51:43.609Z,93.51
2023-04-02T05:52:43.569Z,92.82
2023-04-02T05:53:43.581Z,93.14
2023-04-02T05:54:43.557Z,93.45
2023-04-02T05:55:43.605Z,93.66
2023-04-02T05:56:43.531Z,92.82
2023-04-02T05:57:49.689Z,93.03
2023-04-02T05:58:45.506Z,93.03
2023-04-02T05:59:43.526Z,92.82
2023-04-02T06:00:43.626Z,92.61
2023-04-02T06:01:43.532Z,92.72
2023-04-02T06:02:43.544Z,93.24
2023-04-02T06:03:43.606Z,92.93
2023-04-02T06:04:43.444Z,93.35
2023-04-02T06:05:43.452Z,93.35
2023-04-02T06:06:43.460Z,93.14
2023-04-02T06:07:43.442Z,92.82
2023-04-02T06:08:43.415Z,93.24
2023-04-02T06:09:43.418Z,93.66
2023-04-02T06:10:43.376Z,92.72
2023-04-02T06:11:43.414Z,92.82
2023-04-02T06:12:43.382Z,93.24
2023-04-02T06:13:43.386Z,92.72
2023-04-02T06:14:43.339Z,92.82
2023-04-02T06:15:43.699Z,92.61
2023-04-02T06:16:43.364Z,92.45
2023-04-02T06:17:43.403Z,92.61
2023-04-02T06:18:43.288Z,92.14
2023-04-02T06:19:43.304Z,92.66
2023-04-02T06:20:43.279Z,92.55
2023-04-02T06:21:43.282Z,92.76
2023-04-02T06:22:43.266Z,92.86
2023-04-02T06:23:43.292Z,92.93
2023-04-02T06:24:43.234Z,92.61
2023-04-02T06:25:43.241Z,92.03
2023-04-02T06:26:43.208Z,92.45
2023-04-02T06:27:43.227Z,91.89
2023-04-02T06:28:43.257Z,91.41
2023-04-02T06:29:43.210Z,91.72
2023-04-02T06:30:43.193Z,92.03
2023-04-02T06:31:43.180Z,92.10
2023-04-02T06:32:43.200Z,91.99
2023-04-02T06:33:43.157Z,92.10
2023-04-02T06:34:43.151Z,91.58
2023-04-02T06:35:43.156Z,91.27
2023-04-02T06:36:43.111Z,91.52
2023-04-02T06:37:43.124Z,91.37
2023-04-02T06:38:43.134Z,91.27
2023-04-02T06:39:43.135Z,91.58
2023-04-02T06:40:43.068Z,91.47
2023-04-02T06:41:43.075Z,91.47
2023-04-02T06:42:43.044Z,91.47
2023-04-02T06:43:43.076Z,91.47
2023-04-02T06:44:43.073Z,91.31
2023-04-02T06:45:43.085Z,91.20
2023-04-02T06:46:43.030Z,91.37
2023-04-02T06:47:43.057Z,91.16
2023-04-02T06:48:42.984Z,90.85
2023-04-02T06:49:43.027Z,91.27
2023-04-02T06:50:42.962Z,91.16
2023-04-02T06:51:42.974Z,91.58
2023-04-02T06:52:42.943Z,91.27
2023-04-02T06:53:42.968Z,91.37
2023-04-02T06:54:43.064Z,90.85
2023-04-02T06:55:42.931Z,91.16
2023-04-02T06:56:42.904Z,90.95
2023-04-02T06:57:43.059Z,90.95
2023-04-02T06:58:42.876Z,91.06
2023-04-02T06:59:42.894Z,91.37
2023-04-02T07:00:42.876Z,91.58
2023-04-02T07:01:42.926Z,91.27
2023-04-02T07:02:42.933Z,91.16
2023-04-02T07:03:42.852Z,90.54
2023-04-02T07:04:42.859Z,90.64
2023-04-02T07:05:43.170Z,90.44
2023-04-02T07:06:42.803Z,90.64
2023-04-02T07:07:42.812Z,91.06
2023-04-02T07:08:42.781Z,90.64
2023-04-02T07:09:42.789Z,90.64
2023-04-02T07:10:42.750Z,90.23
2023-04-02T07:11:42.788Z,90.75
2023-04-02T07:12:42.737Z,90.64
2023-04-02T07:13:42.749Z,90.64
2023-04-02T07:14:42.720Z,90.64
2023-04-02T07:15:42.742Z,90.64
2023-04-02T07:16:42.714Z,90.23
2023-04-02T07:17:42.764Z,90.44
2023-04-02T07:18:42.667Z,90.64
2023-04-02T07:19:42.677Z,90.33
2023-04-02T07:20:42.655Z,90.12
2023-04-02T07:21:42.682Z,90.12
2023-04-02T07:22:42.645Z,90.12
2023-04-02T07:23:42.655Z,90.02
2023-04-02T07:24:42.650Z,89.81
2023-04-02T07:25:42.665Z,90.02
2023-04-02T07:26:42.592Z,90.33
2023-04-02T07:27:42.596Z,90.33
2023-04-02T07:28:42.566Z,90.23
2023-04-02T07:29:42.619Z,90.44
2023-04-02T07:30:42.549Z,90.02
2023-04-02T07:31:42.644Z,90.02
2023-04-02T07:32:42.564Z,89.54
2023-04-02T07:33:42.536Z,89.75
2023-04-02T07:34:42.499Z,89.95
2023-04-02T07:35:42.538Z,90.23
2023-04-02T07:36:42.474Z,90.64
2023-04-02T07:37:42.529Z,89.70
2023-04-02T07:38:42.577Z,90.12
2023-04-02T07:39:42.502Z,90.44
2023-04-02T07:40:42.435Z,90.16
2023-04-02T07:41:42.452Z,89.85
2023-04-02T07:42:42.423Z,90.37
2023-04-02T07:43:42.436Z,89.95
2023-04-02T07:44:42.436Z,90.47
2023-04-02T07:45:42.431Z,90.75
2023-04-02T07:46:42.441Z,90.54
2023-04-02T07:47:42.428Z,90.54
2023-04-02T07:48:42.350Z,90.64
2023-04-02T07:49:42.406Z,90.54
2023-04-02T07:50:42.372Z,90.54
2023-04-02T07:51:42.343Z,90.54
2023-04-02T07:52:42.321Z,90.89
2023-04-02T07:53:42.333Z,91.68
2023-04-02T07:54:42.306Z,90.89
2023-04-02T07:55:42.298Z,91.10
2023-04-02T07:56:42.308Z,90.79
2023-04-02T07:57:44.295Z,91.10
2023-04-02T07:58:42.269Z,91.52
2023-04-02T07:59:42.260Z,91.78
2023-04-02T08:00:42.962Z,91.16
2023-04-02T08:01:42.262Z,90.79
2023-04-02T08:02:42.226Z,90.89
2023-04-02T08:03:42.276Z,91.31
2023-04-02T08:04:42.219Z,91.58
2023-04-02T08:05:42.201Z,91.58
2023-04-02T08:06:42.172Z,90.75
2023-04-02T08:07:42.178Z,90.12
2023-04-02T08:08:42.144Z,90.33
2023-04-02T08:09:42.197Z,90.44
2023-04-02T08:10:42.137Z,90.95
2023-04-02T08:11:42.183Z,90.85
2023-04-02T08:12:42.105Z,90.60
2023-04-02T08:13:42.124Z,90.29
2023-04-02T08:14:42.094Z,90.50
2023-04-02T08:15:42.108Z,90.19
2023-04-02T08:16:42.163Z,90.08
2023-04-02T08:17:42.125Z,89.46
2023-04-02T08:18:42.067Z,89.56
2023-04-02T08:19:54.249Z,89.87
2023-04-02T08:20:42.085Z,89.04
2023-04-02T08:21:42.057Z,89.15
2023-04-02T08:22:42.036Z,89.15
2023-04-02T08:23:42.000Z,89.04
2023-04-02T08:24:42.016Z,88.73
2023-04-02T08:25:42.020Z,88.56
2023-04-02T08:26:43.982Z,88.67
2023-04-02T08:27:42.002Z,89.39
2023-04-02T08:28:41.967Z,89.04
2023-04-02T08:29:41.939Z,88.52
2023-04-02T08:30:41.987Z,88.62
2023-04-02T08:31:41.921Z,88.52
2023-04-02T08:32:42.015Z,88.42
2023-04-02T08:33:41.928Z,88.94
2023-04-02T08:34:41.913Z,88.73
2023-04-02T08:35:41.938Z,88.84
2023-04-02T08:36:41.883Z,89.15
2023-04-02T08:37:41.869Z,88.94
2023-04-02T08:38:41.892Z,87.79
2023-04-02T08:39:41.875Z,87.79
2023-04-02T08:40:41.838Z,87.90
2023-04-02T08:41:41.811Z,88.42
2023-04-02T08:42:41.818Z,88.00
2023-04-02T08:43:41.811Z,88.10
2023-04-02T08:44:41.803Z,88.42
2023-04-02T08:45:42.071Z,88.10
2023-04-02T08:46:41.783Z,88.07
2023-04-02T08:47:41.772Z,87.24
2023-04-02T08:48:42.688Z,87.59
2023-04-02T08:49:41.725Z,87.96
2023-04-02T08:50:41.736Z,88.07
2023-04-02T08:51:41.713Z,87.24
2023-04-02T08:52:41.731Z,87.76
2023-04-02T08:53:41.680Z,87.96
2023-04-02T08:54:41.724Z,87.55
2023-04-02T08:55:41.684Z,87.65
2023-04-02T08:56:41.670Z,87.24
2023-04-02T08:57:41.642Z,86.72
2023-04-02T08:58:41.683Z,87.13
2023-04-02T08:59:41.644Z,87.24
2023-04-02T09:00:41.627Z,87.45
2023-04-02T09:01:41.683Z,87.24
2023-04-02T09:02:41.643Z,87.24
2023-04-02T09:03:41.578Z,86.61
2023-04-02T09:04:41.678Z,86.51
2023-04-02T09:05:41.583Z,86.93
2023-04-02T09:06:41.573Z,87.13
2023-04-02T09:07:41.534Z,87.34
2023-04-02T09:08:41.553Z,87.65
2023-04-02T09:09:41.557Z,87.86
2023-04-02T09:10:41.537Z,87.03
2023-04-02T09:11:41.495Z,87.24
2023-04-02T09:12:42.309Z,87.34
2023-04-02T09:13:41.477Z,86.30
2023-04-02T09:14:41.540Z,86.19
2023-04-02T09:15:41.486Z,86.41
2023-04-02T09:16:41.474Z,86.30
2023-04-02T09:17:52.940Z,85.85
2023-04-02T09:18:41.476Z,85.47
2023-04-02T09:19:41.422Z,85.85
2023-04-02T09:20:41.458Z,84.84
2023-04-02T09:21:41.413Z,85.16
2023-04-02T09:22:41.406Z,85.74
2023-04-02T09:23:41.379Z,85.64
2023-04-02T09:24:41.400Z,85.53
2023-04-02T09:26:41.383Z,85.85
2023-04-02T09:27:41.334Z,84.60
2023-04-02T09:28:41.347Z,85.12
2023-04-02T09:29:41.310Z,85.74
2023-04-02T09:30:41.360Z,85.33
2023-04-02T09:31:41.324Z,85.02
2023-04-02T09:32:41.370Z,84.91
2023-04-02T09:33:41.264Z,84.81
2023-04-02T09:34:41.283Z,85.02
2023-04-02T09:35:41.474Z,85.12
2023-04-02T09:36:41.301Z,85.12
2023-04-02T09:37:41.229Z,84.91
2023-04-02T09:38:41.258Z,84.91
2023-04-02T09:39:41.217Z,84.60
2023-04-02T09:40:41.218Z,84.81
2023-04-02T09:41:41.211Z,84.60
2023-04-02T09:42:41.207Z,85.12
2023-04-02T09:43:41.176Z,84.50
2023-04-02T09:44:41.175Z,84.29
2023-04-02T09:45:41.144Z,83.36
2023-04-02T09:46:41.179Z,83.04
2023-04-02T09:47:42.488Z,82.84
2023-04-02T09:48:41.150Z,83.25
2023-04-02T09:49:41.098Z,82.94
2023-04-02T09:50:41.132Z,82.90
2023-04-02T09:51:41.104Z,82.18
2023-04-02T09:52:41.103Z,81.59
2023-04-02T09:53:42.569Z,82.32
2023-04-02T09:54:41.080Z,82.59
2023-04-02T09:55:41.045Z,82.07
2023-04-02T09:56:41.079Z,81.66
2023-04-02T09:57:41.048Z,82.39
2023-04-02T09:58:41.059Z,81.97
2023-04-02T09:59:41.001Z,81.97
2023-04-02T10:00:42.188Z,82.03
2023-04-02T10:01:41.002Z,80.89
2023-04-02T10:02:41.038Z,80.37
2023-04-02T10:03:40.965Z,80.93
2023-04-02T10:04:41.047Z,82.18
2023-04-02T10:05:41.786Z,80.21
2023-04-02T10:06:40.949Z,80.10
2023-04-02T10:07:40.908Z,79.96
2023-04-02T10:08:40.952Z,78.86
2023-04-02T10:09:40.930Z,79.17
2023-04-02T10:10:40.912Z,79.17
2023-04-02T10:11:46.584Z,79.38
2023-04-02T10:12:40.963Z,78.92
2023-04-02T10:13:40.853Z,79.13
2023-04-02T10:14:40.864Z,78.82
2023-04-02T10:15:40.832Z,79.03
2023-04-02T10:16:40.896Z,78.72
2023-04-02T10:17:40.854Z,79.24
2023-04-02T10:18:40.849Z,79.13
2023-04-02T10:19:40.789Z,77.68
2023-04-02T10:20:50.616Z,76.95
2023-04-02T10:21:40.771Z,77.37
2023-04-02T10:22:40.946Z,77.51
2023-04-02T10:23:40.746Z,78.51
2023-04-02T10:24:40.777Z,77.89
2023-04-02T10:25:40.791Z,77.78
2023-04-02T10:26:40.741Z,78.58
2023-04-02T10:27:40.710Z,78.47
2023-04-02T10:28:40.716Z,77.44
2023-04-02T10:29:40.693Z,76.71
2023-04-02T10:30:40.756Z,76.61
2023-04-02T10:31:40.669Z,77.40
2023-04-02T10:32:40.753Z,76.78
2023-04-02T10:33:40.653Z,76.05
2023-04-02T10:34:42.862Z,75.74
2023-04-02T10:35:40.668Z,76.09
2023-04-02T10:36:40.647Z,76.40
2023-04-02T10:37:40.599Z,76.50
2023-04-02T10:38:40.621Z,77.02
2023-04-02T10:39:40.594Z,77.85
2023-04-02T10:40:40.631Z,77.02
2023-04-02T10:41:40.565Z,76.71
2023-04-02T10:42:40.581Z,76.50
2023-04-02T10:43:40.546Z,76.92
2023-04-02T10:44:40.564Z,76.85
2023-04-02T10:45:40.552Z,77.12
2023-04-02T10:46:40.612Z,76.81
2023-04-02T10:47:40.554Z,76.40
2023-04-02T10:48:40.547Z,76.64
2023-04-02T10:49:40.515Z,76.95
2023-04-02T10:50:40.497Z,76.75
2023-04-02T10:51:40.490Z,76.95
2023-04-02T10:52:40.503Z,77.47
2023-04-02T10:53:40.437Z,76.85
2023-04-02T10:54:40.454Z,76.54
2023-04-02T10:55:40.451Z,76.43
2023-04-02T10:56:49.981Z,76.43
2023-04-02T10:57:40.533Z,76.02
2023-04-02T10:58:40.420Z,76.33
2023-04-02T10:59:40.416Z,76.95
2023-04-02T11:00:40.395Z,76.33
2023-04-02T11:01:40.409Z,76.95
2023-04-02T11:02:40.599Z,76.43
2023-04-02T11:03:40.654Z,76.54
2023-04-02T11:04:40.352Z,76.85
2023-04-02T11:05:40.334Z,76.92
2023-04-02T11:06:40.338Z,76.61
2023-04-02T11:07:40.297Z,75.57
2023-04-02T11:08:40.362Z,75.26
2023-04-02T11:09:40.274Z,75.78
2023-04-02T11:10:40.299Z,76.09
2023-04-02T11:11:40.251Z,75.88
2023-04-02T11:12:42.066Z,75.15
2023-04-02T11:13:40.253Z,75.57
2023-04-02T11:14:40.260Z,76.40
2023-04-02T11:15:40.254Z,75.78
2023-04-02T11:16:44.070Z,75.40
2023-04-02T11:17:40.209Z,75.60
2023-04-02T11:18:40.241Z,76.02
2023-04-02T11:19:40.169Z,76.12
2023-04-02T11:20:40.225Z,75.60
2023-04-02T11:21:51.071Z,75.98
2023-04-02T11:22:40.167Z,75.57
2023-04-02T11:23:40.163Z,75.26
2023-04-02T11:24:40.133Z,74.84
2023-04-02T11:25:40.116Z,74.74
2023-04-02T11:26:40.140Z,74.84
2023-04-02T11:27:40.106Z,73.60
2023-04-02T11:28:40.101Z,72.67
2023-04-02T11:29:40.088Z,72.77
2023-04-02T11:30:40.108Z,73.18
2023-04-02T11:31:40.103Z,73.60
2023-04-02T11:32:40.106Z,74.22
2023-04-02T11:33:43.093Z,74.11
2023-04-02T11:34:40.060Z,73.49
2023-04-02T11:35:40.266Z,72.15
2023-04-02T11:36:40.015Z,71.73
2023-04-02T11:37:39.998Z,72.46
2023-04-02T11:38:40.011Z,72.77
2023-04-02T11:39:39.987Z,72.32
2023-04-02T11:40:39.979Z,72.22
2023-04-02T11:41:39.949Z,71.59
2023-04-02T11:42:39.985Z,71.80
2023-04-02T11:43:39.921Z,71.39
2023-04-02T11:44:39.947Z,71.39
2023-04-02T11:45:51.895Z,71.11
2023-04-02T11:46:39.956Z,71.11
2023-04-02T11:47:39.908Z,71.84
2023-04-02T11:48:39.921Z,71.42
2023-04-02T11:49:40.040Z,71.32
2023-04-02T11:50:39.876Z,71.53
2023-04-02T11:51:39.838Z,71.18
2023-04-02T11:52:39.872Z,70.67
2023-04-02T11:53:39.850Z,70.76
2023-04-02T11:54:39.831Z,70.53
2023-04-02T11:55:39.994Z,69.90
2023-04-02T11:56:39.815Z,69.80
2023-04-02T11:57:39.889Z,69.39
2023-04-02T11:58:39.811Z,69.49
2023-04-02T11:59:39.765Z,69.46
2023-04-02T12:00:39.769Z,69.67
2023-04-02T12:01:39.776Z,68.53
2023-04-02T12:02:39.849Z,68.12
2023-04-02T12:03:39.712Z,68.66
2023-04-02T12:04:39.757Z,68.63
2023-04-02T12:05:39.771Z,68.74
2023-04-02T12:06:39.718Z,68.43
2023-04-02T12:07:39.673Z,67.08
2023-04-02T12:08:47.460Z,67.80
2023-04-02T12:09:39.684Z,67.36
2023-04-02T12:10:39.663Z,67.98
2023-04-02T12:11:39.626Z,67.64
2023-04-02T12:12:39.659Z,66.39
2023-04-02T12:13:39.641Z,65.85
2023-04-02T12:14:39.625Z,64.30
2023-04-02T12:15:39.584Z,63.99
2023-04-02T12:16:39.633Z,65.44
2023-04-02T12:17:39.586Z,66.16
2023-04-02T12:18:39.586Z,66.44
2023-04-02T12:19:39.571Z,65.51
2023-04-02T12:20:39.569Z,66.03
2023-04-02T12:21:39.527Z,64.96
2023-04-02T12:22:39.556Z,65.20
2023-04-02T12:23:39.503Z,66.67
2023-04-02T12:24:39.526Z,67.33
2023-04-02T12:25:39.516Z,67.67
2023-04-02T12:26:39.496Z,68.08
2023-04-02T12:27:39.488Z,67.25
2023-04-02T12:28:39.476Z,67.05
2023-04-02T12:29:39.453Z,65.81
2023-04-02T12:30:39.519Z,66.32
2023-04-02T12:31:39.442Z,65.39
2023-04-02T12:32:39.426Z,66.12
2023-04-02T12:33:39.434Z,66.02
2023-04-02T12:34:39.386Z,66.71
2023-04-02T12:35:39.458Z,66.29
2023-04-02T12:36:39.396Z,64.95
2023-04-02T12:37:39.391Z,64.84
2023-04-02T12:38:39.356Z,65.47
2023-04-02T12:39:39.358Z,64.53
2023-04-02T12:40:39.335Z,64.12
2023-04-02T12:41:39.369Z,63.37
2023-04-02T12:42:39.302Z,63.40
2023-04-02T12:43:39.323Z,64.02
2023-04-02T12:44:39.282Z,65.12
2023-04-02T12:45:39.314Z,64.51
2023-04-02T12:46:39.395Z,63.99
2023-04-02T12:47:39.315Z,62.13
2023-04-02T12:48:39.241Z,62.23
2023-04-02T12:49:39.270Z,63.37
2023-04-02T12:50:39.234Z,63.78
2023-04-02T12:51:39.257Z,63.37
2023-04-02T12:52:39.230Z,63.96
2023-04-02T12:53:39.219Z,64.68